Time;durP1;ratioP1;P1;durP2;ratioP2;P2;SDS_P1;SDS_P2;PMS_P1;PMS_P2;Temp;Humidity;BMP_temperature;BMP_pressure;BME280_temperature;BME280_humidity;BME280_pressure;Samples;Min_cycle;Max_cycle;Signal;HPM_P1;HPM_P2
2021/01/05 00:01:16;;;;;;;4.60;3.60;;;22.00;52.40;;;;;;5115792;28;20169;-67
2021/01/05 00:03:42;;;;;;;4.20;3.50;;;22.00;52.40;;;;;;5116042;28;20162;-67
2021/01/05 00:06:07;;;;;;;5.40;3.50;;;22.00;52.50;;;;;;5096800;28;20276;-68
2021/01/05 00:08:33;;;;;;;4.57;3.20;;;22.00;52.50;;;;;;5115819;28;20193;-67
2021/01/05 00:10:59;;;;;;;3.87;3.47;;;21.90;52.40;;;;;;5115965;28;20165;-67
2021/01/05 00:13:24;;;;;;;3.90;3.50;;;22.00;52.50;;;;;;5115626;28;20588;-67
2021/01/05 00:15:50;;;;;;;3.60;3.00;;;21.90;52.40;;;;;;5115746;28;20180;-67
2021/01/05 00:18:16;;;;;;;3.47;2.97;;;21.90;52.40;;;;;;5115376;28;20219;-67
2021/01/05 00:20:41;;;;;;;4.23;3.83;;;21.90;52.40;;;;;;5115532;28;20204;-67
2021/01/05 00:23:07;;;;;;;3.93;3.13;;;21.90;52.40;;;;;;5115644;28;20165;-67
2021/01/05 00:25:33;;;;;;;3.30;2.93;;;21.90;52.40;;;;;;5115606;28;20165;-67
2021/01/05 00:27:58;;;;;;;3.63;3.10;;;21.90;52.40;;;;;;5113934;28;20197;-68
2021/01/05 00:30:26;;;;;;;3.30;2.80;;;21.90;52.40;;;;;;5115248;28;20200;-67
2021/01/05 00:32:54;;;;;;;3.90;2.93;;;21.90;52.40;;;;;;5115719;28;20720;-67
2021/01/05 00:35:26;;;;;;;4.27;2.87;;;21.90;52.50;;;;;;5115161;28;20486;-67
2021/01/05 00:37:52;;;;;;;4.40;3.50;;;21.90;52.50;;;;;;5115313;28;20491;-67
2021/01/05 00:40:19;;;;;;;3.50;2.80;;;21.80;52.50;;;;;;5114920;28;20454;-67
2021/01/05 00:42:45;;;;;;;4.40;2.90;;;21.90;52.50;;;;;;5115376;28;20411;-67
2021/01/05 00:45:13;;;;;;;5.27;3.33;;;21.80;52.40;;;;;;5114984;27;20407;-67
2021/01/05 00:47:38;;;;;;;4.47;3.77;;;21.80;52.40;;;;;;5114886;28;20443;-67
2021/01/05 00:50:04;;;;;;;3.77;3.10;;;21.80;52.40;;;;;;5115410;28;20403;-67
2021/01/05 00:52:30;;;;;;;3.27;2.97;;;21.80;52.50;;;;;;5114589;28;20184;-67
2021/01/05 00:54:56;;;;;;;3.70;3.30;;;21.80;52.40;;;;;;5115073;28;20908;-67
2021/01/05 00:57:21;;;;;;;4.10;3.00;;;21.80;52.40;;;;;;5114578;28;20193;-67
2021/01/05 00:59:47;;;;;;;4.47;3.20;;;21.80;52.40;;;;;;5114655;28;20197;-67
2021/01/05 01:02:13;;;;;;;3.50;2.80;;;21.80;52.40;;;;;;5114664;28;20701;-67
2021/01/05 01:04:39;;;;;;;2.90;2.70;;;21.80;52.40;;;;;;5114816;28;20215;-67
2021/01/05 01:07:05;;;;;;;3.37;3.07;;;21.80;52.40;;;;;;5114681;28;20941;-67
2021/01/05 01:09:31;;;;;;;2.83;2.17;;;21.80;52.40;;;;;;5113136;28;20445;-67
2021/01/05 01:12:00;;;;;;;5.10;3.03;;;21.80;52.40;;;;;;5113182;28;20460;-67
2021/01/05 01:14:26;;;;;;;3.13;2.83;;;21.80;52.40;;;;;;5120351;22;20498;-68
2021/01/05 01:16:51;;;;;;;3.50;2.97;;;21.80;52.40;;;;;;5113584;28;20415;-69
2021/01/05 01:19:17;;;;;;;4.77;2.77;;;21.80;52.90;;;;;;5112660;28;20694;-66
2021/01/05 01:21:47;;;;;;;4.00;3.00;;;21.80;52.40;;;;;;5114357;28;20157;-67
2021/01/05 01:24:13;;;;;;;3.20;2.87;;;21.80;52.40;;;;;;5114111;28;20171;-67
2021/01/05 01:26:38;;;;;;;3.33;2.90;;;21.80;52.30;;;;;;5114058;28;20825;-67
2021/01/05 01:29:04;;;;;;;3.23;2.87;;;21.80;52.30;;;;;;5114127;28;20165;-67
2021/01/05 01:31:30;;;;;;;3.60;3.30;;;21.80;52.40;;;;;;5114056;28;20165;-67
2021/01/05 01:33:56;;;;;;;4.07;2.83;;;21.80;52.30;;;;;;5114047;28;20168;-67
2021/01/05 01:36:21;;;;;;;3.83;3.20;;;21.80;52.30;;;;;;5114156;28;20550;-68
2021/01/05 01:38:47;;;;;;;4.50;2.90;;;21.70;52.30;;;;;;5114116;28;20417;-67
2021/01/05 01:41:13;;;;;;;3.47;2.93;;;21.80;52.40;;;;;;5114151;28;20208;-65
2021/01/05 01:43:39;;;;;;;3.37;2.77;;;21.80;52.30;;;;;;5113819;28;20161;-67
2021/01/05 01:46:04;;;;;;;4.20;3.40;;;21.70;52.20;;;;;;5113866;28;20157;-67
2021/01/05 01:48:30;;;;;;;4.90;3.57;;;21.70;52.20;;;;;;5113671;28;20441;-67
2021/01/05 01:51:00;;;;;;;4.20;3.50;;;21.80;52.20;;;;;;5113753;28;20197;-67
2021/01/05 01:53:59;;;;;;;3.30;2.97;;;21.80;52.30;;;;;;5114083;28;20172;-67
2021/01/05 01:57:02;;;;;;;3.23;2.70;;;21.70;52.20;;;;;;5113574;28;20741;-67
2021/01/05 01:59:47;;;;;;;3.50;3.20;;;21.70;52.20;;;;;;5113569;28;20481;-67
2021/01/05 02:02:21;;;;;;;4.00;3.20;;;21.70;52.20;;;;;;5112363;28;20411;-67
2021/01/05 02:05:25;;;;;;;4.53;3.30;;;21.70;52.30;;;;;;5113897;28;20395;-67
2021/01/05 02:08:03;;;;;;;3.20;2.90;;;21.70;52.30;;;;;;5082105;28;20442;-67
2021/01/05 02:10:54;;;;;;;3.73;3.00;;;21.60;52.20;;;;;;5113589;28;20399;-67
2021/01/05 02:13:35;;;;;;;3.33;3.03;;;21.70;52.30;;;;;;5113547;28;20395;-67
2021/01/05 02:16:32;;;;;;;4.17;2.93;;;21.70;52.30;;;;;;5113463;28;20387;-68
2021/01/05 02:19:12;;;;;;;3.23;2.53;;;21.70;52.30;;;;;;5113947;28;20398;-67
2021/01/05 02:22:09;;;;;;;3.20;2.70;;;21.60;52.20;;;;;;5112206;28;20411;-67
2021/01/05 02:24:46;;;;;;;2.90;2.60;;;21.70;52.30;;;;;;5080412;28;20403;-67
2021/01/05 02:27:13;;;;;;;3.40;3.10;;;21.60;52.20;;;;;;5112037;28;20773;-67
2021/01/05 02:30:01;;;;;;;3.00;2.70;;;21.60;52.20;;;;;;5113560;28;20399;-67
2021/01/05 02:32:53;;;;;;;4.40;3.00;;;21.70;52.20;;;;;;5117861;27;20928;-67
2021/01/05 02:35:54;;;;;;;4.00;3.30;;;21.70;52.20;;;;;;5117496;28;20813;-67
2021/01/05 02:38:50;;;;;;;4.53;3.03;;;21.70;52.20;;;;;;5113292;28;20820;-67
2021/01/05 02:41:41;;;;;;;3.33;2.93;;;21.60;52.20;;;;;;5117462;28;20395;-65
2021/01/05 02:44:09;;;;;;;3.47;2.70;;;21.60;52.20;;;;;;5117617;28;20953;-67
2021/01/05 02:46:46;;;;;;;2.87;2.57;;;21.60;52.10;;;;;;5117131;28;20398;-68
2021/01/05 02:49:29;;;;;;;4.13;2.83;;;21.60;52.10;;;;;;5117176;28;20555;-67
2021/01/05 02:52:09;;;;;;;2.83;2.43;;;21.70;52.20;;;;;;5117147;28;20387;-67
2021/01/05 02:54:43;;;;;;;3.10;2.50;;;21.70;52.20;;;;;;5117160;28;20762;-67
2021/01/05 02:57:39;;;;;;;3.20;2.90;;;21.60;52.10;;;;;;5117646;28;20947;-67
2021/01/05 03:00:34;;;;;;;4.33;2.57;;;21.60;52.10;;;;;;5117470;28;20438;-67
2021/01/05 03:03:00;;;;;;;3.00;2.80;;;21.60;52.10;;;;;;5117274;28;20422;-67
2021/01/05 03:05:25;;;;;;;3.00;2.70;;;21.60;52.10;;;;;;5116889;28;20881;-67
2021/01/05 03:07:52;;;;;;;3.30;2.67;;;21.60;52.10;;;;;;5116800;28;20185;-67
2021/01/05 03:10:42;;;;;;;4.00;2.60;;;21.60;52.00;;;;;;5116749;28;20176;-67
2021/01/05 03:13:45;;;;;;;3.20;2.73;;;21.60;51.90;;;;;;5116959;28;20387;-67
2021/01/05 03:16:27;;;;;;;2.67;2.30;;;21.60;52.00;;;;;;5116711;28;20447;-67
2021/01/05 03:19:21;;;;;;;3.30;2.80;;;21.60;52.00;;;;;;5116894;28;20781;-67
2021/01/05 03:21:53;;;;;;;3.50;3.20;;;21.60;51.90;;;;;;5081587;28;20979;-67
2021/01/05 03:24:21;;;;;;;3.87;3.20;;;21.60;52.00;;;;;;5116801;28;20391;-67
2021/01/05 03:26:49;;;;;;;2.60;2.27;;;21.60;52.00;;;;;;5116464;28;20815;-67
2021/01/05 03:29:17;;;;;;;3.40;2.63;;;21.60;52.00;;;;;;5116744;28;20395;-67
2021/01/05 03:31:53;;;;;;;2.83;2.53;;;21.60;51.90;;;;;;5116469;28;20914;-66
2021/01/05 03:34:19;;;;;;;3.20;2.80;;;21.60;51.90;;;;;;5116352;28;20403;-67
2021/01/05 03:36:45;;;;;;;3.00;2.50;;;21.60;52.00;;;;;;5116532;28;20431;-67
2021/01/05 03:39:12;;;;;;;3.30;2.53;;;21.60;52.00;;;;;;5116143;28;20443;-67
2021/01/05 03:41:37;;;;;;;3.10;2.60;;;21.60;52.00;;;;;;5115706;28;20169;-67
2021/01/05 03:44:04;;;;;;;2.97;2.60;;;21.60;52.00;;;;;;5116439;28;20832;-66
2021/01/05 03:46:31;;;;;;;3.00;2.53;;;21.60;52.00;;;;;;5116100;28;20165;-67
2021/01/05 03:48:57;;;;;;;2.53;2.33;;;21.60;52.00;;;;;;5116034;28;20407;-67
2021/01/05 03:51:23;;;;;;;3.47;3.00;;;21.60;52.00;;;;;;5116056;28;20472;-67
2021/01/05 03:53:49;;;;;;;3.30;2.50;;;21.60;52.00;;;;;;5116017;28;20399;-68
2021/01/05 03:56:15;;;;;;;3.00;2.70;;;21.60;52.00;;;;;;5115872;28;20969;-67
2021/01/05 03:58:41;;;;;;;3.13;2.63;;;21.60;52.00;;;;;;5115816;28;20199;-67
2021/01/05 04:01:07;;;;;;;2.67;2.30;;;21.60;51.90;;;;;;5115760;28;20541;-67
2021/01/05 04:03:33;;;;;;;5.30;2.93;;;21.60;51.90;;;;;;5115800;28;20169;-67
2021/01/05 04:05:58;;;;;;;3.23;2.93;;;21.60;51.90;;;;;;5115755;28;20433;-67
2021/01/05 04:08:24;;;;;;;3.23;2.87;;;21.60;51.90;;;;;;5115665;28;20736;-67
2021/01/05 04:10:50;;;;;;;3.37;2.90;;;21.60;51.90;;;;;;5115689;28;20202;-67
2021/01/05 04:13:16;;;;;;;3.00;2.23;;;21.60;52.00;;;;;;5115887;28;20433;-64
2021/01/05 04:15:42;;;;;;;2.97;2.67;;;21.60;52.00;;;;;;5115398;28;20720;-67
2021/01/05 04:18:09;;;;;;;3.53;2.37;;;21.60;52.00;;;;;;5115693;28;20434;-67
2021/01/05 04:20:34;;;;;;;3.30;3.00;;;21.60;52.00;;;;;;5115664;28;20193;-67
2021/01/05 04:23:00;;;;;;;2.97;2.67;;;21.60;52.00;;;;;;5115403;28;20465;-67
2021/01/05 04:25:26;;;;;;;3.00;2.60;;;21.60;52.00;;;;;;5115387;28;20173;-67
2021/01/05 04:27:52;;;;;;;2.67;2.30;;;21.60;52.00;;;;;;5115281;28;20322;-64
2021/01/05 04:30:23;;;;;;;2.97;2.20;;;21.60;52.00;;;;;;5115325;28;20918;-66
2021/01/05 04:32:50;;;;;;;3.03;2.47;;;21.60;51.90;;;;;;5115551;28;20391;-67
2021/01/05 04:35:18;;;;;;;3.07;2.60;;;21.60;51.90;;;;;;5115142;28;20407;-67
2021/01/05 04:37:44;;;;;;;4.10;2.40;;;21.60;51.90;;;;;;5114984;28;20521;-67
2021/01/05 04:40:43;;;;;;;2.60;2.23;;;21.60;51.90;;;;;;5115049;28;21062;-67
2021/01/05 04:43:36;;;;;;;2.53;2.33;;;21.60;51.90;;;;;;5114431;28;20192;-67
2021/01/05 04:46:13;;;;;;;2.83;2.10;;;21.60;51.90;;;;;;5115174;28;20403;-67
2021/01/05 04:48:48;;;;;;;2.57;2.13;;;21.60;51.90;;;;;;5114841;28;20479;-67
2021/01/05 04:51:39;;;;;;;2.67;2.00;;;21.60;51.90;;;;;;5115056;28;20500;-66
2021/01/05 04:54:16;;;;;;;2.67;2.30;;;21.60;51.90;;;;;;5112712;28;20419;-68
2021/01/05 04:57:19;;;;;;;2.77;2.53;;;21.60;51.90;;;;;;5114926;28;20426;-66
2021/01/05 04:59:52;;;;;;;2.97;2.10;;;21.60;51.90;;;;;;5114413;28;20466;-67
2021/01/05 05:02:30;;;;;;;2.40;2.20;;;21.60;51.80;;;;;;5114897;28;20402;-67
2021/01/05 05:05:04;;;;;;;2.47;1.90;;;21.50;51.80;;;;;;5114716;28;20473;-67
2021/01/05 05:07:30;;;;;;;3.00;2.50;;;21.50;51.90;;;;;;5114750;28;20882;-67
2021/01/05 05:09:59;;;;;;;2.50;2.17;;;21.50;51.80;;;;;;5114390;28;20490;-67
2021/01/05 05:13:00;;;;;;;4.03;2.50;;;21.60;51.80;;;;;;5114369;28;20242;-67
2021/01/05 05:15:48;;;;;;;2.60;2.40;;;21.60;51.80;;;;;;5031650;28;20442;-67
2021/01/05 05:18:26;;;;;;;3.07;2.47;;;21.50;51.80;;;;;;5110183;28;20439;-67
2021/01/05 05:21:03;;;;;;;3.20;2.10;;;21.50;51.80;;;;;;5112938;28;20450;-67
2021/01/05 05:23:53;;;;;;;2.07;1.80;;;21.50;51.80;;;;;;5114315;28;20909;-66
2021/01/05 05:26:32;;;;;;;2.30;2.10;;;21.50;51.70;;;;;;5101635;22;20503;-68
2021/01/05 05:29:02;;;;;;;2.80;2.40;;;21.50;51.80;;;;;;5072695;28;20385;-68
2021/01/05 05:31:32;;;;;;;2.43;2.23;;;21.50;52.10;;;;;;5073038;28;20417;-67
2021/01/05 05:34:07;;;;;;;3.07;2.20;;;21.50;51.80;;;;;;5073491;28;20401;-67
2021/01/05 05:37:05;;;;;;;2.20;1.87;;;21.50;51.80;;;;;;5073327;28;20400;-67
2021/01/05 05:40:11;;;;;;;2.10;1.90;;;21.50;51.80;;;;;;5028819;28;20517;-67
2021/01/05 05:43:23;;;;;;;2.70;2.27;;;21.50;51.80;;;;;;5073277;28;20846;-67
2021/01/05 05:46:12;;;;;;;2.60;2.40;;;21.50;51.90;;;;;;5073277;28;20806;-66
2021/01/05 05:48:51;;;;;;;2.97;2.20;;;21.50;52.00;;;;;;5073162;28;20927;-67
2021/01/05 05:51:43;;;;;;;3.17;2.40;;;21.50;52.00;;;;;;5073218;28;20471;-67
2021/01/05 05:54:13;;;;;;;2.70;2.03;;;21.50;52.00;;;;;;5063883;28;20413;-67
2021/01/05 05:56:52;;;;;;;2.23;1.90;;;21.50;52.00;;;;;;5073050;28;21010;-67
2021/01/05 05:59:29;;;;;;;2.33;2.10;;;21.60;52.10;;;;;;5073014;28;20432;-67
2021/01/05 06:01:54;;;;;;;2.63;1.80;;;21.60;52.10;;;;;;5072885;28;20431;-67
2021/01/05 06:04:21;;;;;;;2.37;2.10;;;21.50;52.00;;;;;;5072882;28;20400;-67
2021/01/05 06:06:48;;;;;;;2.77;1.90;;;21.50;52.50;;;;;;5072928;28;20209;-67
2021/01/05 06:09:13;;;;;;;2.87;2.17;;;21.60;52.10;;;;;;5072965;28;20901;-67
2021/01/05 06:11:39;;;;;;;2.20;2.00;;;21.60;52.00;;;;;;5073211;28;20404;-68
2021/01/05 06:14:05;;;;;;;2.53;2.13;;;21.60;52.00;;;;;;5072926;28;20208;-67
2021/01/05 06:16:32;;;;;;;2.40;2.10;;;21.60;52.00;;;;;;5072870;28;20213;-67
2021/01/05 06:18:58;;;;;;;2.17;1.70;;;21.60;52.00;;;;;;5072810;28;20409;-67
2021/01/05 06:21:24;;;;;;;2.30;2.10;;;21.60;52.00;;;;;;5072840;28;20847;-67
2021/01/05 06:23:50;;;;;;;2.40;2.07;;;21.70;52.00;;;;;;5072871;28;20887;-67
2021/01/05 06:26:17;;;;;;;2.43;2.10;;;21.70;52.00;;;;;;5072512;28;20190;-68
2021/01/05 06:28:43;;;;;;;2.50;2.13;;;21.70;52.00;;;;;;5072735;28;20277;-67
2021/01/05 06:31:09;;;;;;;2.20;2.00;;;21.70;52.00;;;;;;5072824;28;20489;-67
2021/01/05 06:33:35;;;;;;;2.90;2.40;;;21.70;52.00;;;;;;5072702;28;20202;-68
2021/01/05 06:36:00;;;;;;;2.33;1.80;;;21.70;52.00;;;;;;5072768;28;21025;-67
2021/01/05 06:38:26;;;;;;;2.07;1.80;;;21.70;52.00;;;;;;5072895;28;20206;-67
2021/01/05 06:40:52;;;;;;;2.97;2.57;;;21.70;52.00;;;;;;5054628;28;20293;-67
2021/01/05 06:43:18;;;;;;;3.30;2.30;;;21.70;52.00;;;;;;5072638;28;20669;-67
2021/01/05 06:45:43;;;;;;;2.57;2.03;;;21.70;52.00;;;;;;5072655;28;20249;-67
2021/01/05 06:48:09;;;;;;;2.13;1.90;;;21.70;52.00;;;;;;5072825;28;20243;-67
2021/01/05 06:50:35;;;;;;;1.90;1.57;;;21.70;52.00;;;;;;5073602;28;20186;-67
2021/01/05 06:53:01;;;;;;;3.80;2.00;;;21.70;52.00;;;;;;5054598;28;20955;-67
2021/01/05 06:55:26;;;;;;;2.23;2.00;;;21.70;52.00;;;;;;5072787;28;20647;-67
2021/01/05 06:57:52;;;;;;;2.07;1.87;;;21.70;52.00;;;;;;5072480;28;20201;-66
2021/01/05 07:00:24;;;;;;;1.90;1.70;;;21.70;52.00;;;;;;5072359;28;20202;-66
2021/01/05 07:02:50;;;;;;;2.30;1.87;;;21.70;52.00;;;;;;5072350;28;20205;-65
2021/01/05 07:05:17;;;;;;;2.17;1.70;;;21.70;52.00;;;;;;5072461;28;20396;-67
2021/01/05 07:07:44;;;;;;;1.57;1.37;;;21.70;52.00;;;;;;5072569;28;20427;-67
2021/01/05 07:10:11;;;;;;;2.10;1.87;;;21.70;52.10;;;;;;5072438;28;20400;-67
2021/01/05 07:12:36;;;;;;;1.53;1.43;;;21.70;52.00;;;;;;5072604;28;20409;-67
2021/01/05 07:15:04;;;;;;;2.27;2.00;;;21.70;52.00;;;;;;5072335;28;20434;-67
2021/01/05 07:17:30;;;;;;;2.83;2.10;;;21.70;52.00;;;;;;5057985;28;20198;-67
2021/01/05 07:19:56;;;;;;;2.00;1.77;;;21.80;52.10;;;;;;5075912;28;20455;-67
2021/01/05 07:22:21;;;;;;;2.47;2.27;;;21.70;52.00;;;;;;5076168;28;20178;-67
2021/01/05 07:24:47;;;;;;;3.23;2.50;;;21.80;52.10;;;;;;5075752;28;20548;-67
2021/01/05 07:27:12;;;;;;;2.03;1.70;;;21.80;52.10;;;;;;5076077;28;20197;-67
2021/01/05 07:29:38;;;;;;;2.33;1.80;;;21.70;52.00;;;;;;5075781;28;20204;-67
2021/01/05 07:32:04;;;;;;;2.20;1.87;;;21.70;52.60;;;;;;5076267;28;20250;-67
2021/01/05 07:34:30;;;;;;;2.00;1.60;;;21.80;52.10;;;;;;5075701;28;20175;-67
2021/01/05 07:37:01;;;;;;;2.73;1.90;;;21.80;52.10;;;;;;5075611;28;20462;-65
2021/01/05 07:39:32;;;;;;;2.13;1.83;;;21.80;52.70;;;;;;5075787;28;20451;-67
2021/01/05 07:42:18;;;;;;;2.07;1.73;;;21.80;52.10;;;;;;5075571;28;20449;-67
2021/01/05 07:44:45;;;;;;;2.03;1.67;;;21.90;52.10;;;;;;5075745;28;20531;-67
2021/01/05 07:47:12;;;;;;;1.83;1.53;;;21.80;52.10;;;;;;5075692;28;20443;-67
2021/01/05 07:49:38;;;;;;;2.33;2.10;;;21.80;52.10;;;;;;5075413;28;20475;-67
2021/01/05 07:52:37;;;;;;;2.50;2.00;;;21.90;52.20;;;;;;5075597;28;20419;-67
2021/01/05 07:55:24;;;;;;;2.97;1.90;;;21.80;52.00;;;;;;5031663;28;20231;-68
2021/01/05 07:57:51;;;;;;;2.10;1.83;;;21.80;52.00;;;;;;5075149;28;20436;-67
2021/01/05 08:00:22;;;;;;;2.13;1.90;;;21.80;52.10;;;;;;5075040;28;20914;-67
2021/01/05 08:02:48;;;;;;;2.37;1.93;;;21.80;52.00;;;;;;5075414;28;20495;-68
2021/01/05 08:05:16;;;;;;;2.50;2.20;;;21.80;51.90;;;;;;5075218;28;20440;-67
2021/01/05 08:07:42;;;;;;;2.40;1.83;;;21.80;51.80;;;;;;5074936;28;20193;-67
2021/01/05 08:10:09;;;;;;;2.07;1.57;;;21.80;51.80;;;;;;5075297;28;20466;-67
2021/01/05 08:12:35;;;;;;;2.37;2.00;;;21.80;51.80;;;;;;5075277;28;20413;-67
2021/01/05 08:15:00;;;;;;;2.53;1.90;;;21.80;51.70;;;;;;5075105;28;20744;-67
2021/01/05 08:17:26;;;;;;;2.23;1.87;;;21.80;51.70;;;;;;5074823;28;20202;-66
2021/01/05 08:19:51;;;;;;;2.67;1.90;;;21.80;51.80;;;;;;5056871;28;20206;-67
2021/01/05 08:22:17;;;;;;;3.37;2.13;;;21.80;51.80;;;;;;5075359;28;20185;-67
2021/01/05 08:24:43;;;;;;;2.73;2.20;;;21.80;51.80;;;;;;5074942;28;20194;-67
2021/01/05 08:27:10;;;;;;;2.30;2.00;;;21.80;51.80;;;;;;5073903;28;20191;-67
2021/01/05 08:29:36;;;;;;;2.13;1.73;;;21.80;51.80;;;;;;5074527;28;20544;-67
2021/01/05 08:32:03;;;;;;;3.53;2.20;;;21.80;51.80;;;;;;5074551;28;20404;-65
2021/01/05 08:34:29;;;;;;;3.00;2.03;;;21.80;51.80;;;;;;5074803;28;20822;-69
2021/01/05 08:36:57;;;;;;;2.60;2.07;;;21.80;51.80;;;;;;5074503;28;20471;-65
2021/01/05 08:39:23;;;;;;;2.90;2.17;;;21.80;51.80;;;;;;5056860;28;20209;-67
2021/01/05 08:41:52;;;;;;;2.07;1.50;;;21.80;51.80;;;;;;5074430;28;20408;-66
2021/01/05 08:44:18;;;;;;;2.10;1.80;;;21.80;51.80;;;;;;5074263;28;20178;-67
2021/01/05 08:46:44;;;;;;;2.50;2.30;;;21.80;51.80;;;;;;5056297;28;20950;-68
2021/01/05 08:49:23;;;;;;;2.97;2.30;;;21.80;51.80;;;;;;5074437;28;20411;-66
2021/01/05 08:51:52;;;;;;;3.87;2.30;;;21.80;51.80;;;;;;5074307;28;20479;-67
2021/01/05 08:54:19;;;;;;;2.20;1.90;;;21.80;51.80;;;;;;5056739;28;20424;-68
2021/01/05 08:56:44;;;;;;;2.37;1.80;;;21.80;51.80;;;;;;5074325;28;20483;-67
2021/01/05 08:59:10;;;;;;;3.03;1.83;;;21.80;51.80;;;;;;5074000;28;20547;-68
2021/01/05 09:01:35;;;;;;;2.47;2.07;;;21.80;51.90;;;;;;5073957;28;20190;-70
2021/01/05 09:04:01;;;;;;;3.43;2.30;;;21.80;51.80;;;;;;5074175;28;20174;-69
2021/01/05 09:06:27;;;;;;;2.80;2.23;;;21.80;51.80;;;;;;5073965;28;20162;-68
2021/01/05 09:08:54;;;;;;;2.93;2.10;;;21.80;51.80;;;;;;5074137;28;20668;-68
2021/01/05 09:11:26;;;;;;;2.43;1.90;;;21.90;51.80;;;;;;5073698;28;20653;-68
2021/01/05 09:13:52;;;;;;;2.40;1.90;;;21.90;51.80;;;;;;5074000;28;20809;-69
2021/01/05 09:16:29;;;;;;;3.30;2.13;;;21.90;51.80;;;;;;5073748;28;20416;-69
2021/01/05 09:18:56;;;;;;;3.20;2.30;;;21.90;51.90;;;;;;5055894;28;20695;-66
2021/01/05 09:21:23;;;;;;;4.00;2.10;;;21.90;51.90;;;;;;5073682;28;20456;-67
2021/01/05 09:23:50;;;;;;;2.93;1.70;;;22.00;51.90;;;;;;5073827;28;20409;-70
2021/01/05 09:26:18;;;;;;;2.40;1.80;;;21.90;51.80;;;;;;5073606;28;20435;-69
2021/01/05 09:28:44;;;;;;;2.00;1.63;;;22.00;51.90;;;;;;5073479;28;20429;-67
2021/01/05 09:31:09;;;;;;;2.87;2.17;;;22.00;51.90;;;;;;5073598;28;20412;-67
2021/01/05 09:33:35;;;;;;;1.97;1.70;;;22.00;51.90;;;;;;5073284;28;20180;-68
2021/01/05 09:36:01;;;;;;;2.83;1.70;;;22.00;51.80;;;;;;5056328;28;20605;-69
2021/01/05 09:38:26;;;;;;;1.93;1.73;;;22.00;51.80;;;;;;5072890;28;20198;-68
2021/01/05 09:40:53;;;;;;;2.10;1.50;;;22.10;51.90;;;;;;5073181;28;20233;-68
2021/01/05 09:43:19;;;;;;;2.40;1.73;;;22.00;51.80;;;;;;5073347;28;20189;-67
2021/01/05 09:45:45;;;;;;;3.13;2.23;;;22.00;51.90;;;;;;5073575;28;20381;-68
2021/01/05 09:48:13;;;;;;;2.20;2.00;;;22.00;51.90;;;;;;5073305;28;20201;-70
2021/01/05 09:50:41;;;;;;;2.70;2.10;;;22.00;52.00;;;;;;5055231;28;20417;-68
2021/01/05 09:53:07;;;;;;;2.07;1.73;;;22.00;52.00;;;;;;5073092;28;20420;-69
2021/01/05 09:55:33;;;;;;;3.97;2.23;;;22.00;52.00;;;;;;5073129;28;20409;-69
2021/01/05 09:58:00;;;;;;;2.37;1.77;;;22.00;52.00;;;;;;5054973;28;20440;-70
2021/01/05 10:00:27;;;;;;;2.90;1.87;;;22.00;52.00;;;;;;5072944;28;20449;-68
2021/01/05 10:02:52;;;;;;;2.33;1.67;;;22.00;52.00;;;;;;5073252;28;20412;-72
2021/01/05 10:05:18;;;;;;;2.17;1.77;;;22.00;52.00;;;;;;5072877;28;20405;-69
2021/01/05 10:07:44;;;;;;;2.93;1.80;;;22.00;52.00;;;;;;5072867;28;20194;-68
2021/01/05 10:10:19;;;;;;;2.40;1.90;;;22.00;52.00;;;;;;5072916;28;20405;-68
2021/01/05 10:12:45;;;;;;;2.90;2.00;;;22.00;52.10;;;;;;5072915;28;20446;-65
2021/01/05 10:15:11;;;;;;;3.50;1.90;;;22.00;52.10;;;;;;5073109;28;20421;-69
2021/01/05 10:17:37;;;;;;;2.20;2.00;;;21.90;52.00;;;;;;5072719;28;20256;-67
2021/01/05 10:20:05;;;;;;;3.00;1.93;;;21.90;52.00;;;;;;5072708;28;20444;-68
2021/01/05 10:22:31;;;;;;;2.20;1.70;;;22.00;52.20;;;;;;5073150;28;20155;-68
2021/01/05 10:24:56;;;;;;;2.83;2.10;;;21.90;52.00;;;;;;5072628;28;20466;-68
2021/01/05 10:27:23;;;;;;;2.07;1.80;;;22.00;52.10;;;;;;5072757;28;20564;-68
2021/01/05 10:29:49;;;;;;;3.10;2.40;;;22.00;52.10;;;;;;5073008;28;20182;-67
2021/01/05 10:32:15;;;;;;;2.63;1.90;;;22.00;52.10;;;;;;5072710;28;20551;-68
2021/01/05 10:34:40;;;;;;;4.03;1.90;;;22.00;52.10;;;;;;5072675;28;20462;-69
2021/01/05 10:37:06;;;;;;;2.03;1.70;;;22.00;52.10;;;;;;5035736;28;20210;-69
2021/01/05 10:39:32;;;;;;;2.60;1.97;;;22.00;52.10;;;;;;5072603;28;20263;-69
2021/01/05 10:41:58;;;;;;;2.50;1.80;;;22.10;52.20;;;;;;5072681;28;20171;-69
2021/01/05 10:44:25;;;;;;;2.37;1.80;;;22.00;52.10;;;;;;5072874;28;20255;-68
2021/01/05 10:46:57;;;;;;;2.80;1.90;;;22.00;52.20;;;;;;5072462;28;20424;-68
2021/01/05 10:49:22;;;;;;;3.77;1.97;;;22.00;52.20;;;;;;5072859;28;20480;-67
2021/01/05 10:51:50;;;;;;;3.00;2.07;;;22.00;52.20;;;;;;5074601;28;20491;-67
2021/01/05 10:54:17;;;;;;;1.97;1.50;;;22.00;52.20;;;;;;5076485;28;20174;-70
2021/01/05 10:56:45;;;;;;;2.67;2.30;;;22.00;52.20;;;;;;5076626;28;20435;-69
2021/01/05 10:59:11;;;;;;;2.47;1.97;;;22.10;52.20;;;;;;5076510;28;20435;-69
2021/01/05 11:01:37;;;;;;;2.07;1.80;;;22.10;52.20;;;;;;5076280;28;20458;-69
2021/01/05 11:04:03;;;;;;;2.60;1.43;;;22.10;52.20;;;;;;5076264;28;20401;-70
2021/01/05 11:06:28;;;;;;;4.37;1.83;;;22.10;52.20;;;;;;5076146;28;20516;-71
2021/01/05 11:08:54;;;;;;;5.10;1.80;;;22.10;52.20;;;;;;5057794;28;20176;-69
2021/01/05 11:11:21;;;;;;;2.00;1.60;;;22.10;52.10;;;;;;5075570;28;20220;-69
2021/01/05 11:13:46;;;;;;;3.30;2.13;;;22.10;52.10;;;;;;5075958;28;20661;-71
2021/01/05 11:16:13;;;;;;;2.27;1.50;;;22.10;52.10;;;;;;5075718;28;20419;-69
2021/01/05 11:18:51;;;;;;;3.00;2.00;;;22.20;52.10;;;;;;5075310;28;20197;-69
2021/01/05 11:21:17;;;;;;;2.40;2.07;;;22.10;52.00;;;;;;5075046;28;20488;-68
2021/01/05 11:23:43;;;;;;;3.10;1.83;;;22.20;52.20;;;;;;5075642;28;20503;-71
2021/01/05 11:26:09;;;;;;;3.90;2.37;;;22.10;52.00;;;;;;5075863;28;20202;-69
2021/01/05 11:28:35;;;;;;;2.80;1.53;;;22.10;52.00;;;;;;5075822;28;20606;-70
2021/01/05 11:31:01;;;;;;;3.53;1.80;;;22.10;52.00;;;;;;5076082;28;20408;-68
2021/01/05 11:33:26;;;;;;;3.43;1.77;;;22.10;52.00;;;;;;5075675;28;20417;-70
2021/01/05 11:35:52;;;;;;;2.87;2.00;;;22.20;52.10;;;;;;5076255;28;20280;-69
2021/01/05 11:38:18;;;;;;;2.77;1.90;;;22.10;52.00;;;;;;5075834;28;20560;-68
2021/01/05 11:40:43;;;;;;;2.50;2.00;;;22.10;52.10;;;;;;5075767;28;20293;-70
2021/01/05 11:43:09;;;;;;;2.67;1.90;;;22.20;52.10;;;;;;5075815;28;20167;-70
2021/01/05 11:45:35;;;;;;;2.43;1.90;;;22.10;52.00;;;;;;5075816;28;20642;-70
2021/01/05 11:48:00;;;;;;;2.77;1.90;;;22.20;52.10;;;;;;5075376;28;20243;-70
2021/01/05 11:50:26;;;;;;;2.97;1.80;;;22.20;52.10;;;;;;5075651;28;20667;-71
2021/01/05 11:52:52;;;;;;;1.70;1.50;;;22.20;52.10;;;;;;5075502;28;20174;-69
2021/01/05 11:55:19;;;;;;;2.97;2.00;;;22.20;52.10;;;;;;5075863;28;20671;-70
2021/01/05 11:57:44;;;;;;;5.63;1.90;;;22.20;52.10;;;;;;5075498;28;20244;-70
2021/01/05 12:00:20;;;;;;;2.00;1.30;;;22.20;52.10;;;;;;5075367;28;20444;-70
2021/01/05 12:02:46;;;;;;;2.60;1.47;;;22.20;52.10;;;;;;5075478;28;20162;-70
2021/01/05 12:05:13;;;;;;;3.03;2.07;;;22.20;52.10;;;;;;5075141;28;20462;-70
2021/01/05 12:07:39;;;;;;;4.20;2.00;;;22.20;52.10;;;;;;5075017;28;20202;-70
2021/01/05 12:10:06;;;;;;;2.57;1.60;;;22.20;52.10;;;;;;5057112;28;20470;-69
2021/01/05 12:12:33;;;;;;;5.73;1.67;;;22.20;52.00;;;;;;5074948;28;20465;-69
2021/01/05 12:14:58;;;;;;;2.20;1.87;;;22.20;52.00;;;;;;5075247;28;20397;-69
2021/01/05 12:17:36;;;;;;;2.70;2.17;;;22.20;52.00;;;;;;5074882;28;20449;-69
2021/01/05 12:20:04;;;;;;;2.90;2.50;;;22.20;52.00;;;;;;5075046;28;20686;-69
2021/01/05 12:22:30;;;;;;;3.57;2.10;;;22.20;52.00;;;;;;5074824;28;20393;-69
2021/01/05 12:24:55;;;;;;;3.33;2.20;;;22.20;52.00;;;;;;5074586;28;20431;-69
2021/01/05 12:27:21;;;;;;;2.37;1.87;;;22.20;52.00;;;;;;5056966;28;20239;-69
2021/01/05 12:29:46;;;;;;;2.30;1.80;;;22.20;51.90;;;;;;5074683;28;20656;-69
2021/01/05 12:32:17;;;;;;;3.20;2.40;;;22.20;51.90;;;;;;5074879;28;20178;-69
2021/01/05 12:34:49;;;;;;;6.30;2.87;;;22.20;51.90;;;;;;5074842;28;20202;-69
2021/01/05 12:37:21;;;;;;;2.80;1.90;;;22.20;51.90;;;;;;5074700;28;20444;-69
2021/01/05 12:39:47;;;;;;;4.40;2.40;;;22.20;51.90;;;;;;5074716;28;20466;-69
2021/01/05 12:42:25;;;;;;;3.40;2.30;;;22.10;51.70;;;;;;5074405;28;20412;-69
2021/01/05 12:44:52;;;;;;;3.17;2.87;;;22.20;51.80;;;;;;5074376;28;20175;-69
2021/01/05 12:47:19;;;;;;;3.90;2.60;;;22.10;51.70;;;;;;5074439;28;20439;-69
2021/01/05 12:49:46;;;;;;;4.00;2.70;;;22.10;51.70;;;;;;5074466;28;20482;-69
2021/01/05 12:52:12;;;;;;;8.07;2.50;;;22.10;51.70;;;;;;5074185;28;20417;-69
2021/01/05 12:54:39;;;;;;;6.73;2.77;;;22.10;51.70;;;;;;5074363;28;20901;-69
2021/01/05 12:57:08;;;;;;;5.57;4.17;;;22.10;51.70;;;;;;5074333;28;20429;-68
2021/01/05 12:59:34;;;;;;;4.50;3.33;;;22.10;51.70;;;;;;5073982;28;20455;-68
2021/01/05 13:02:02;;;;;;;3.37;2.80;;;22.10;51.70;;;;;;5074798;28;20424;-67
2021/01/05 13:04:29;;;;;;;6.03;3.60;;;22.10;51.60;;;;;;5073967;28;20408;-69